createdAt,value
2023-02-14T00:02:20.672Z,3.85
2023-02-14T00:07:19.566Z,3.96
2023-02-14T00:12:19.832Z,4.00
2023-02-14T00:17:18.531Z,3.94
2023-02-14T00:22:17.408Z,4.00
2023-02-14T00:27:16.236Z,4.09
2023-02-14T00:32:16.440Z,4.09
2023-02-14T00:37:16.872Z,4.07
2023-02-14T00:42:17.184Z,4.05
2023-02-14T00:47:20.242Z,4.07
2023-02-14T00:52:19.079Z,4.03
2023-02-14T00:57:17.892Z,3.76
2023-02-14T01:02:16.694Z,3.55
2023-02-14T01:07:16.930Z,3.49
2023-02-14T01:12:15.817Z,3.44
2023-02-14T01:17:14.647Z,3.56
2023-02-14T01:22:13.546Z,3.51
2023-02-14T01:27:14.442Z,3.35
2023-02-14T01:32:13.278Z,3.41
2023-02-14T01:37:12.101Z,3.28
2023-02-14T01:42:13.280Z,3.30
2023-02-14T01:47:13.078Z,3.31
2023-02-14T01:52:15.978Z,3.14
2023-02-14T01:57:22.370Z,3.19
2023-02-14T02:02:24.045Z,3.15
2023-02-14T02:07:26.647Z,3.08
2023-02-14T02:12:28.716Z,2.95
2023-02-14T02:17:37.685Z,3.07
2023-02-14T02:23:18.434Z,3.11
2023-02-14T02:28:40.059Z,3.30
2023-02-14T02:34:07.683Z,3.29
2023-02-14T02:39:22.588Z,3.34
2023-02-14T02:44:29.074Z,3.19
2023-02-14T02:49:55.385Z,3.19
2023-02-14T02:55:02.383Z,2.92
2023-02-14T03:00:03.619Z,2.86
2023-02-14T03:05:06.895Z,2.80
2023-02-14T03:10:13.470Z,2.66
2023-02-14T03:15:22.270Z,2.72
2023-02-14T03:20:25.804Z,2.71
2023-02-14T03:25:36.640Z,2.78
2023-02-14T03:30:43.673Z,2.81
2023-02-14T03:35:54.577Z,2.87
2023-02-14T03:41:00.859Z,2.81
2023-02-14T03:46:08.603Z,2.75
2023-02-14T03:51:11.497Z,2.72
2023-02-14T03:56:15.715Z,2.85
2023-02-14T04:01:18.845Z,2.80
2023-02-14T04:06:19.684Z,2.79
2023-02-14T04:11:19.974Z,2.83
2023-02-14T04:16:18.844Z,2.86
2023-02-14T04:21:17.929Z,2.85
2023-02-14T04:26:16.794Z,2.90
2023-02-14T04:31:17.551Z,2.78
2023-02-14T04:36:16.396Z,2.67
2023-02-14T04:41:15.247Z,2.58
2023-02-14T04:46:14.809Z,2.46
2023-02-14T04:51:15.146Z,2.56
2023-02-14T04:56:13.901Z,2.54
2023-02-14T05:01:12.731Z,2.09
2023-02-14T05:06:11.662Z,2.09
2023-02-14T05:11:12.010Z,2.11
2023-02-14T05:16:10.882Z,2.12
2023-02-14T05:21:09.744Z,2.08
2023-02-14T05:26:08.608Z,1.88
2023-02-14T05:31:09.182Z,1.91
2023-02-14T05:36:08.810Z,1.79
2023-02-14T05:41:07.808Z,1.78
2023-02-14T05:46:08.319Z,1.79
2023-02-14T05:51:08.613Z,1.74
2023-02-14T05:56:08.430Z,1.79
2023-02-14T06:01:09.018Z,1.73
2023-02-14T06:06:08.162Z,1.90
2023-02-14T06:11:07.021Z,1.92
2023-02-14T06:16:06.283Z,2.01
2023-02-14T06:21:07.019Z,1.97
2023-02-14T06:26:06.085Z,1.81
2023-02-14T06:31:05.265Z,1.78
2023-02-14T06:36:04.242Z,1.84
2023-02-14T06:41:06.730Z,1.45
2023-02-14T06:46:05.910Z,1.60
2023-02-14T06:51:05.498Z,1.23
2023-02-14T06:56:06.363Z,1.41
2023-02-14T07:01:05.691Z,1.55
2023-02-14T07:06:05.141Z,1.65
2023-02-14T07:11:05.444Z,1.83
2023-02-14T07:16:04.292Z,1.75
2023-02-14T07:21:03.538Z,2.03
2023-02-14T07:26:02.384Z,2.02
2023-02-14T07:31:03.421Z,2.04
2023-02-14T07:36:06.317Z,1.93
2023-02-14T07:41:05.627Z,1.73
2023-02-14T07:46:06.062Z,1.99
2023-02-14T07:51:06.771Z,2.16
2023-02-14T07:56:05.780Z,2.27
2023-02-14T08:01:06.178Z,2.22
2023-02-14T08:06:05.027Z,2.43
2023-02-14T08:11:03.883Z,2.32
2023-02-14T08:16:05.958Z,2.43
2023-02-14T08:21:08.766Z,2.58
2023-02-14T08:26:07.826Z,2.75
2023-02-14T08:31:06.935Z,2.76
2023-02-14T08:36:07.700Z,2.80
2023-02-14T08:41:08.859Z,3.00
2023-02-14T08:46:08.272Z,3.16
2023-02-14T08:51:09.755Z,3.27
2023-02-14T08:56:10.828Z,3.44
2023-02-14T09:01:10.733Z,3.79
2023-02-14T09:06:14.366Z,4.25
2023-02-14T09:11:15.800Z,4.79
2023-02-14T09:16:17.696Z,5.19
2023-02-14T09:21:20.738Z,5.62
2023-02-14T09:26:20.138Z,6.47
2023-02-14T09:31:20.751Z,6.37
2023-02-14T09:36:38.505Z,6.79
2023-02-14T09:42:08.281Z,7.28
2023-02-14T09:47:13.811Z,7.68
2023-02-14T09:52:17.102Z,7.92
2023-02-14T09:57:24.328Z,7.93
2023-02-14T10:02:44.680Z,8.06
2023-02-14T10:07:56.937Z,8.55
2023-02-14T10:13:01.624Z,8.66
2023-02-14T10:18:04.437Z,8.46
2023-02-14T10:23:13.733Z,8.77
2023-02-14T10:28:16.996Z,9.07
2023-02-14T10:33:19.514Z,9.31
2023-02-14T10:38:41.185Z,9.73
2023-02-14T10:43:49.630Z,9.72
2023-02-14T10:48:58.985Z,10.01
2023-02-14T10:54:15.473Z,9.10
2023-02-14T10:59:23.446Z,9.96
2023-02-14T11:04:24.836Z,10.45
2023-02-14T11:09:25.190Z,11.51
2023-02-14T11:14:28.305Z,11.92
2023-02-14T11:19:29.445Z,12.19
2023-02-14T11:24:33.106Z,11.87
2023-02-14T11:29:35.011Z,11.62
2023-02-14T11:34:36.840Z,11.85
2023-02-14T11:39:37.228Z,11.20
2023-02-14T11:44:37.354Z,12.07
2023-02-14T11:49:36.941Z,12.21
2023-02-14T11:54:39.181Z,12.22
2023-02-14T11:59:42.898Z,12.07
2023-02-14T12:04:46.753Z,12.06
2023-02-14T12:09:47.772Z,12.34
2023-02-14T12:14:46.882Z,12.88
2023-02-14T12:19:50.731Z,13.06
2023-02-14T12:25:00.442Z,12.76
2023-02-14T12:30:07.430Z,13.19
2023-02-14T12:35:16.130Z,14.24
2023-02-14T12:40:24.279Z,13.21
2023-02-14T12:45:31.740Z,13.53
2023-02-14T12:50:45.420Z,13.40
2023-02-14T12:55:58.310Z,13.92
2023-02-14T13:01:08.983Z,13.84
2023-02-14T13:06:16.332Z,13.44
2023-02-14T13:11:30.272Z,13.39
2023-02-14T13:16:36.381Z,13.90
2023-02-14T13:21:38.767Z,14.09
2023-02-14T13:26:42.840Z,14.08
2023-02-14T13:31:43.101Z,14.77
2023-02-14T13:36:42.521Z,14.64
2023-02-14T13:41:42.899Z,15.33
2023-02-14T13:46:51.762Z,16.22
2023-02-14T13:51:53.607Z,16.62
2023-02-14T13:56:53.850Z,16.46
2023-02-14T14:01:52.650Z,15.67
2023-02-14T14:07:17.174Z,16.27
2023-02-14T14:12:57.470Z,15.91
2023-02-14T14:18:32.845Z,15.54
2023-02-14T14:23:37.274Z,16.10
2023-02-14T14:28:36.405Z,16.17
2023-02-14T14:33:37.821Z,16.30
2023-02-14T14:38:49.404Z,16.30
2023-02-14T14:43:48.807Z,16.31
2023-02-14T14:48:50.195Z,15.76
2023-02-14T14:53:54.048Z,15.67
2023-02-14T14:58:53.277Z,15.57
2023-02-14T15:03:52.226Z,15.71
2023-02-14T15:08:52.892Z,15.79
2023-02-14T15:13:54.609Z,15.80
2023-02-14T15:18:56.763Z,15.16
2023-02-14T15:23:57.282Z,15.09
2023-02-14T15:29:01.083Z,15.00
2023-02-14T15:34:03.112Z,14.80
2023-02-14T15:39:08.538Z,14.45
2023-02-14T15:44:24.420Z,14.17
2023-02-14T15:49:28.891Z,13.89
2023-02-14T15:54:37.063Z,13.57
2023-02-14T15:59:43.197Z,13.25
2023-02-14T16:04:42.147Z,12.84
2023-02-14T16:09:42.633Z,12.55
2023-02-14T16:14:45.801Z,12.28
2023-02-14T16:19:46.542Z,11.99
2023-02-14T16:24:46.704Z,11.70
2023-02-14T16:29:45.427Z,11.41
2023-02-14T16:34:45.693Z,11.13
2023-02-14T16:39:46.543Z,10.87
2023-02-14T16:44:45.953Z,11.31
2023-02-14T16:49:46.201Z,12.17
2023-02-14T16:54:46.921Z,12.46
2023-02-14T16:59:45.886Z,12.57
2023-02-14T17:04:50.184Z,12.04
2023-02-14T17:09:53.648Z,11.54
2023-02-14T17:14:55.827Z,11.12
2023-02-14T17:19:54.752Z,10.73
2023-02-14T17:24:56.946Z,10.39
2023-02-14T17:29:56.141Z,10.10
2023-02-14T17:34:55.006Z,9.85
2023-02-14T17:39:55.597Z,9.62
2023-02-14T17:44:54.402Z,9.41
2023-02-14T17:49:53.274Z,9.20
2023-02-14T17:54:52.489Z,9.00
2023-02-14T17:59:52.662Z,8.75
2023-02-14T18:04:51.476Z,8.58
2023-02-14T18:09:50.310Z,8.40
2023-02-14T18:14:49.504Z,8.33
2023-02-14T18:19:50.467Z,8.25
2023-02-14T18:24:49.514Z,8.11
2023-02-14T18:29:50.269Z,7.90
2023-02-14T18:34:51.189Z,7.75
2023-02-14T18:39:49.861Z,7.70
2023-02-14T18:44:48.661Z,7.65
2023-02-14T18:49:47.368Z,7.61
2023-02-14T18:54:47.531Z,7.33
2023-02-14T18:59:46.682Z,6.86
2023-02-14T19:04:45.439Z,6.69
2023-02-14T19:09:44.289Z,6.68
2023-02-14T19:14:44.692Z,6.69
2023-02-14T19:19:43.832Z,6.67
2023-02-14T19:24:44.531Z,6.53
2023-02-14T19:29:44.869Z,6.44
2023-02-14T19:34:48.402Z,6.38
2023-02-14T19:39:47.816Z,6.43
2023-02-14T19:44:51.101Z,6.39
2023-02-14T19:49:49.864Z,6.39
2023-02-14T19:54:48.590Z,6.25
2023-02-14T19:59:49.191Z,6.13
2023-02-14T20:04:47.925Z,6.09
2023-02-14T20:09:50.309Z,6.01
2023-02-14T20:14:54.129Z,5.83
2023-02-14T20:19:52.945Z,5.82
2023-02-14T20:24:51.851Z,5.77
2023-02-14T20:29:52.084Z,5.66
2023-02-14T20:34:54.631Z,5.67
2023-02-14T20:39:53.548Z,5.65
2023-02-14T20:44:54.054Z,5.65
2023-02-14T20:49:53.098Z,5.44
2023-02-14T20:54:55.479Z,5.20
2023-02-14T20:59:56.101Z,5.16
2023-02-14T21:05:00.363Z,5.17
2023-02-14T21:10:02.401Z,5.16
2023-02-14T21:15:02.776Z,5.25
2023-02-14T21:20:07.765Z,5.20
2023-02-14T21:25:19.905Z,5.19
2023-02-14T21:30:24.281Z,5.07
2023-02-14T21:35:33.406Z,5.13
2023-02-14T21:40:34.910Z,5.19
2023-02-14T21:45:52.438Z,5.15
2023-02-14T21:50:51.212Z,5.16
2023-02-14T21:55:49.988Z,5.16
2023-02-14T22:00:50.208Z,5.12
2023-02-14T22:05:49.019Z,5.06
2023-02-14T22:10:47.892Z,4.87
2023-02-14T22:15:46.820Z,4.73
2023-02-14T22:20:47.371Z,4.70
2023-02-14T22:25:46.102Z,4.28
2023-02-14T22:30:44.892Z,4.13
2023-02-14T22:35:43.613Z,4.20
2023-02-14T22:40:43.701Z,4.19
2023-02-14T22:45:42.534Z,4.26
2023-02-14T22:50:41.354Z,3.94
2023-02-14T22:55:40.973Z,4.01
2023-02-14T23:00:41.138Z,3.91
2023-02-14T23:05:39.878Z,3.45
2023-02-14T23:10:38.612Z,3.45
2023-02-14T23:15:54.772Z,3.26
2023-02-14T23:21:12.774Z,3.28
2023-02-14T23:26:14.376Z,3.33
2023-02-14T23:31:13.182Z,3.29
2023-02-14T23:36:13.311Z,3.41
2023-02-14T23:41:29.885Z,3.38
2023-02-14T23:46:28.685Z,3.43
2023-02-14T23:51:28.796Z,3.48
2023-02-14T23:56:27.580Z,3.48
